createdAt,value
2019-05-22T00:01:44.054Z,12.09
2019-05-22T00:04:32.442Z,12.20
2019-05-22T00:07:05.819Z,12.19
2019-05-22T00:09:37.618Z,12.25
2019-05-22T00:12:09.360Z,12.29
2019-05-22T00:14:38.358Z,12.34
2019-05-22T00:17:09.728Z,12.33
2019-05-22T00:19:38.303Z,12.30
2019-05-22T00:22:14.233Z,12.20
2019-05-22T00:24:46.306Z,12.00
2019-05-22T00:27:16.974Z,12.02
2019-05-22T00:29:47.184Z,11.97
2019-05-22T00:32:17.381Z,11.89
2019-05-22T00:34:47.021Z,11.77
2019-05-22T00:37:17.153Z,11.78
2019-05-22T00:39:47.967Z,11.76
2019-05-22T00:42:18.540Z,11.77
2019-05-22T00:44:48.462Z,11.77
2019-05-22T00:47:17.855Z,11.60
2019-05-22T00:49:50.060Z,11.54
2019-05-22T00:52:23.268Z,11.64
2019-05-22T00:55:07.399Z,11.58
2019-05-22T00:57:38.202Z,11.42
2019-05-22T01:00:24.251Z,11.33
2019-05-22T01:02:55.089Z,11.40
2019-05-22T01:05:23.964Z,11.37
2019-05-22T01:07:52.724Z,11.35
2019-05-22T01:10:22.941Z,11.43
2019-05-22T01:12:56.267Z,11.52
2019-05-22T01:15:26.458Z,11.48
2019-05-22T01:17:56.591Z,11.38
2019-05-22T01:20:26.863Z,11.39
2019-05-22T01:22:58.122Z,11.29
2019-05-22T01:25:28.352Z,11.16
2019-05-22T01:27:58.158Z,11.13
2019-05-22T01:30:28.514Z,11.02
2019-05-22T01:33:06.200Z,11.07
2019-05-22T01:35:37.233Z,11.17
2019-05-22T01:38:07.065Z,11.21
2019-05-22T01:40:49.060Z,11.11
2019-05-22T01:43:19.317Z,10.92
2019-05-22T01:45:54.104Z,10.94
2019-05-22T01:48:29.854Z,11.11
2019-05-22T01:50:58.471Z,11.10
2019-05-22T01:53:29.419Z,11.12
2019-05-22T01:56:03.191Z,11.14
2019-05-22T01:58:31.948Z,11.18
2019-05-22T02:01:02.545Z,11.13
2019-05-22T02:03:32.356Z,11.16
2019-05-22T02:06:01.517Z,11.25
2019-05-22T02:08:32.320Z,11.11
2019-05-22T02:11:01.709Z,11.07
2019-05-22T02:13:37.671Z,11.03
2019-05-22T02:16:08.439Z,11.01
2019-05-22T02:18:38.637Z,11.00
2019-05-22T02:21:07.577Z,10.92
2019-05-22T02:23:38.173Z,10.88
2019-05-22T02:26:09.635Z,10.98
2019-05-22T02:28:39.013Z,11.01
2019-05-22T02:31:07.656Z,10.72
2019-05-22T02:33:38.719Z,10.62
2019-05-22T02:36:08.041Z,10.63
2019-05-22T02:38:37.386Z,10.69
2019-05-22T02:41:08.392Z,10.70
2019-05-22T02:43:37.338Z,10.78
2019-05-22T02:46:07.651Z,10.80
2019-05-22T02:48:37.177Z,10.71
2019-05-22T02:51:06.061Z,10.70
2019-05-22T02:53:34.787Z,10.59
2019-05-22T02:56:04.028Z,10.52
2019-05-22T02:58:34.773Z,10.35
2019-05-22T03:01:05.583Z,10.38
2019-05-22T03:03:35.377Z,10.41
2019-05-22T03:06:06.954Z,10.45
2019-05-22T03:08:58.347Z,10.59
2019-05-22T03:11:39.727Z,10.77
2019-05-22T03:14:09.388Z,10.82
2019-05-22T03:16:56.480Z,10.83
2019-05-22T03:19:34.167Z,10.83
2019-05-22T03:22:21.340Z,10.79
2019-05-22T03:24:51.529Z,10.76
2019-05-22T03:27:25.675Z,10.86
2019-05-22T03:29:56.680Z,11.76
2019-05-22T03:32:25.443Z,13.02
2019-05-22T03:34:55.040Z,14.43
2019-05-22T03:37:25.096Z,15.69
2019-05-22T03:39:53.764Z,16.62
2019-05-22T03:42:22.848Z,17.15
2019-05-22T03:44:53.642Z,17.81
2019-05-22T03:47:23.570Z,18.26
2019-05-22T03:49:53.102Z,18.94
2019-05-22T03:52:21.834Z,19.54
2019-05-22T03:54:51.114Z,20.03
2019-05-22T03:57:21.443Z,20.48
2019-05-22T03:59:50.582Z,21.17
2019-05-22T04:02:20.123Z,21.51
2019-05-22T04:04:49.492Z,21.00
2019-05-22T04:07:19.792Z,21.17
2019-05-22T04:09:49.515Z,21.76
2019-05-22T04:12:18.598Z,21.51
2019-05-22T04:14:47.163Z,21.87
2019-05-22T04:17:16.707Z,22.54
2019-05-22T04:19:51.081Z,23.44
2019-05-22T04:22:18.999Z,23.25
2019-05-22T04:24:47.797Z,23.89
2019-05-22T04:27:16.523Z,24.82
2019-05-22T04:29:45.219Z,24.54
2019-05-22T04:32:15.497Z,24.91
2019-05-22T04:34:45.041Z,25.34
2019-05-22T04:37:13.952Z,24.68
2019-05-22T04:39:45.448Z,24.59
2019-05-22T04:42:14.696Z,25.62
2019-05-22T04:45:03.307Z,25.31
2019-05-22T04:47:34.871Z,25.71
2019-05-22T04:50:07.932Z,25.87
2019-05-22T04:52:36.509Z,25.59
2019-05-22T04:55:10.636Z,25.84
2019-05-22T04:57:39.667Z,26.13
2019-05-22T05:00:11.682Z,25.52
2019-05-22T05:02:40.933Z,26.17
2019-05-22T05:05:12.538Z,26.71
2019-05-22T05:07:41.724Z,26.07
2019-05-22T05:10:10.888Z,26.98
2019-05-22T05:12:41.086Z,27.33
2019-05-22T05:15:10.058Z,26.76
2019-05-22T05:17:39.501Z,26.88
2019-05-22T05:20:21.582Z,26.17
2019-05-22T05:22:45.433Z,26.59
2019-05-22T05:25:19.146Z,27.18
2019-05-22T05:27:48.144Z,26.23
2019-05-22T05:30:19.710Z,27.00
2019-05-22T05:32:48.450Z,27.67
2019-05-22T05:35:20.171Z,27.54
2019-05-22T05:37:49.834Z,27.07
2019-05-22T05:40:27.799Z,27.71
2019-05-22T05:42:57.350Z,27.73
2019-05-22T05:45:27.574Z,28.01
2019-05-22T05:47:57.799Z,29.22
2019-05-22T05:50:38.943Z,28.39
2019-05-22T05:52:59.995Z,27.75
2019-05-22T05:55:30.746Z,27.85
2019-05-22T05:58:15.296Z,28.94
2019-05-22T06:00:51.866Z,27.34
2019-05-22T06:03:32.279Z,25.57
2019-05-22T06:06:21.674Z,26.40
2019-05-22T06:08:50.275Z,26.78
2019-05-22T06:11:53.267Z,28.31
2019-05-22T06:14:25.811Z,28.83
2019-05-22T06:17:20.291Z,29.42
2019-05-22T06:19:57.584Z,29.44
2019-05-22T06:22:26.134Z,28.58
2019-05-22T06:24:58.306Z,29.27
2019-05-22T06:27:44.193Z,29.24
2019-05-22T06:30:21.805Z,30.50
2019-05-22T06:33:12.154Z,29.78
2019-05-22T06:35:40.991Z,30.42
2019-05-22T06:38:21.761Z,30.60
2019-05-22T06:40:51.518Z,29.90
2019-05-22T06:43:23.981Z,29.51
2019-05-22T06:45:54.807Z,29.86
2019-05-22T06:48:23.776Z,28.75
2019-05-22T06:50:55.311Z,27.89
2019-05-22T06:53:24.200Z,29.19
2019-05-22T06:55:52.827Z,30.00
2019-05-22T06:58:21.856Z,31.27
2019-05-22T07:00:50.821Z,31.46
2019-05-22T07:03:20.642Z,31.29
2019-05-22T07:05:50.240Z,31.27
2019-05-22T07:08:19.771Z,31.89
2019-05-22T07:10:48.916Z,32.35
2019-05-22T07:13:18.291Z,32.48
2019-05-22T07:15:48.764Z,33.36
2019-05-22T07:18:18.045Z,32.19
2019-05-22T07:20:48.877Z,30.62
2019-05-22T07:23:20.665Z,28.54
2019-05-22T07:25:51.138Z,28.03
2019-05-22T07:28:20.672Z,26.55
2019-05-22T07:30:50.981Z,25.46
2019-05-22T07:33:21.012Z,25.72
2019-05-22T07:36:08.625Z,25.33
2019-05-22T07:38:21.280Z,25.63
2019-05-22T07:40:51.570Z,23.81
2019-05-22T07:43:22.069Z,22.76
2019-05-22T07:45:51.774Z,22.91
2019-05-22T07:48:21.754Z,22.05
2019-05-22T07:50:52.105Z,21.88
2019-05-22T07:53:21.018Z,21.58
2019-05-22T07:55:51.764Z,21.67
2019-05-22T07:58:20.904Z,21.94
2019-05-22T08:00:55.035Z,21.34
2019-05-22T08:05:54.899Z,21.67
2019-05-22T08:08:25.056Z,21.84
2019-05-22T08:10:55.973Z,21.46
2019-05-22T08:13:26.477Z,22.11
2019-05-22T08:15:55.365Z,21.52
2019-05-22T08:18:25.183Z,21.82
2019-05-22T08:20:53.821Z,22.83
2019-05-22T08:23:23.275Z,23.19
2019-05-22T08:25:52.114Z,24.30
2019-05-22T08:28:21.225Z,23.57
2019-05-22T08:30:50.356Z,22.86
2019-05-22T08:33:20.864Z,23.04
2019-05-22T08:35:49.654Z,23.97
2019-05-22T08:38:19.786Z,25.02
2019-05-22T08:40:49.294Z,25.38
2019-05-22T08:43:18.839Z,24.39
2019-05-22T08:45:47.894Z,23.52
2019-05-22T08:48:17.535Z,22.86
2019-05-22T08:50:46.571Z,22.79
2019-05-22T08:53:16.122Z,22.84
2019-05-22T08:55:45.829Z,22.61
2019-05-22T08:58:16.318Z,22.48
2019-05-22T09:00:45.916Z,22.66
2019-05-22T09:03:15.531Z,22.96
2019-05-22T09:05:44.339Z,23.35
2019-05-22T09:08:13.015Z,23.85
2019-05-22T09:10:41.946Z,24.14
2019-05-22T09:13:10.548Z,23.99
2019-05-22T09:15:40.985Z,23.30
2019-05-22T09:18:10.214Z,22.38
2019-05-22T09:20:49.327Z,21.93
2019-05-22T09:23:11.604Z,21.70
2019-05-22T09:25:40.234Z,22.15
2019-05-22T09:28:09.150Z,23.44
2019-05-22T09:30:38.010Z,24.17
2019-05-22T09:33:08.392Z,24.40
2019-05-22T09:35:37.180Z,24.51
2019-05-22T09:38:05.870Z,25.00
2019-05-22T09:40:34.875Z,25.07
2019-05-22T09:43:05.182Z,24.61
2019-05-22T09:45:35.832Z,24.20
2019-05-22T09:48:05.760Z,24.36
2019-05-22T09:50:34.968Z,24.53
2019-05-22T09:53:05.315Z,25.52
2019-05-22T09:55:33.975Z,25.81
2019-05-22T09:58:02.614Z,25.82
2019-05-22T10:00:31.865Z,25.33
2019-05-22T10:03:00.978Z,25.59
2019-05-22T10:05:30.821Z,26.34
2019-05-22T10:08:01.898Z,26.49
2019-05-22T10:10:31.265Z,26.81
2019-05-22T10:13:00.381Z,27.03
2019-05-22T10:15:31.185Z,26.66
2019-05-22T10:18:00.232Z,26.27
2019-05-22T10:20:29.077Z,25.87
2019-05-22T10:23:14.075Z,24.63
2019-05-22T10:25:29.045Z,23.85
2019-05-22T10:27:59.437Z,23.22
2019-05-22T10:30:28.610Z,22.92
2019-05-22T10:32:57.263Z,22.67
2019-05-22T10:35:27.601Z,22.80
2019-05-22T10:37:56.842Z,22.89
2019-05-22T10:40:26.549Z,22.79
2019-05-22T10:42:56.335Z,22.55
2019-05-22T10:45:26.062Z,22.37
2019-05-22T10:47:54.747Z,22.57
2019-05-22T10:50:24.341Z,22.73
2019-05-22T10:52:54.894Z,23.25
2019-05-22T10:55:23.913Z,23.27
2019-05-22T10:57:52.754Z,23.12
2019-05-22T11:00:23.386Z,23.14
2019-05-22T11:02:52.335Z,23.26
2019-05-22T11:05:22.087Z,23.49
2019-05-22T11:07:52.357Z,23.39
2019-05-22T11:10:24.409Z,23.24
2019-05-22T11:12:53.938Z,23.04
2019-05-22T11:15:23.681Z,22.88
2019-05-22T11:17:52.998Z,23.30
2019-05-22T11:20:22.762Z,23.81
2019-05-22T11:22:51.469Z,24.02
2019-05-22T11:25:20.407Z,23.82
2019-05-22T11:27:49.234Z,23.65
2019-05-22T11:30:19.456Z,23.17
2019-05-22T11:32:48.743Z,22.82
2019-05-22T11:35:18.322Z,22.52
2019-05-22T11:37:47.927Z,22.59
2019-05-22T11:40:18.025Z,22.89
2019-05-22T11:42:46.830Z,23.13
2019-05-22T11:45:16.942Z,22.58
2019-05-22T11:47:45.766Z,22.39
2019-05-22T11:50:16.426Z,22.47
2019-05-22T11:52:46.626Z,22.61
2019-05-22T11:55:16.132Z,23.13
2019-05-22T11:57:46.228Z,23.63
2019-05-22T12:00:16.452Z,24.02
2019-05-22T12:02:46.607Z,23.78
2019-05-22T12:05:16.320Z,23.55
2019-05-22T12:07:46.228Z,23.48
2019-05-22T12:10:15.736Z,23.33
2019-05-22T12:12:45.382Z,23.36
2019-05-22T12:15:14.988Z,23.49
2019-05-22T12:17:45.036Z,23.48
2019-05-22T12:20:16.746Z,23.56
2019-05-22T12:22:45.535Z,23.81
2019-05-22T12:25:14.711Z,24.34
2019-05-22T12:27:43.448Z,24.44
2019-05-22T12:30:14.591Z,24.74
2019-05-22T12:32:43.545Z,24.55
2019-05-22T12:35:15.107Z,24.51
2019-05-22T12:37:44.302Z,24.63
2019-05-22T12:40:16.280Z,24.73
2019-05-22T12:42:45.475Z,24.83
2019-05-22T12:45:17.085Z,24.63
2019-05-22T12:47:46.735Z,24.14
2019-05-22T12:50:17.077Z,24.16
2019-05-22T12:52:48.744Z,24.41
2019-05-22T12:55:18.561Z,24.92
2019-05-22T12:57:49.174Z,25.23
2019-05-22T13:00:21.628Z,25.69
2019-05-22T13:02:51.246Z,25.59
2019-05-22T13:05:20.713Z,25.42
2019-05-22T13:07:49.717Z,25.42
2019-05-22T13:10:19.798Z,25.65
2019-05-22T13:12:48.655Z,25.56
2019-05-22T13:15:17.641Z,25.26
2019-05-22T13:17:46.873Z,24.78
2019-05-22T13:20:40.547Z,24.64
2019-05-22T13:22:54.046Z,24.74
2019-05-22T13:25:26.313Z,24.92
2019-05-22T13:27:55.225Z,24.80
2019-05-22T13:30:28.478Z,24.75
2019-05-22T13:32:57.060Z,24.71
2019-05-22T13:35:26.822Z,24.54
2019-05-22T13:37:58.111Z,24.81
2019-05-22T13:40:29.833Z,25.10
2019-05-22T13:42:59.452Z,24.99
2019-05-22T13:45:30.338Z,24.41
2019-05-22T13:48:00.106Z,24.01
2019-05-22T13:50:29.416Z,23.95
2019-05-22T13:53:00.754Z,23.96
2019-05-22T13:55:30.335Z,23.96
2019-05-22T13:58:00.215Z,23.99
2019-05-22T14:00:29.595Z,23.78
2019-05-22T14:02:58.753Z,23.56
2019-05-22T14:05:29.491Z,23.55
2019-05-22T14:07:58.280Z,23.41
2019-05-22T14:10:28.895Z,23.27
2019-05-22T14:12:57.811Z,23.45
2019-05-22T14:15:26.854Z,23.58
2019-05-22T14:17:55.690Z,23.77
2019-05-22T14:20:24.722Z,23.93
2019-05-22T14:22:54.005Z,24.14
2019-05-22T14:25:24.246Z,24.10
2019-05-22T14:27:53.052Z,23.75
2019-05-22T14:30:24.248Z,23.46
2019-05-22T14:32:52.915Z,23.43
2019-05-22T14:35:23.587Z,23.30
2019-05-22T14:37:52.201Z,23.35
2019-05-22T14:40:21.304Z,23.31
2019-05-22T14:42:50.104Z,23.34
2019-05-22T14:45:19.203Z,23.38
2019-05-22T14:47:47.807Z,23.51
2019-05-22T14:50:17.119Z,23.61
2019-05-22T14:52:45.900Z,23.71
2019-05-22T14:55:15.734Z,23.76
2019-05-22T14:57:45.029Z,23.62
2019-05-22T15:00:17.846Z,23.69
2019-05-22T15:02:53.428Z,23.72
2019-05-22T15:05:17.785Z,23.58
2019-05-22T15:07:46.451Z,23.85
2019-05-22T15:10:17.001Z,23.81
2019-05-22T15:12:46.223Z,23.69
2019-05-22T15:15:15.976Z,23.78
2019-05-22T15:17:44.978Z,23.83
2019-05-22T15:20:20.788Z,23.68
2019-05-22T15:22:50.067Z,23.52
2019-05-22T15:25:19.076Z,23.30
2019-05-22T15:27:47.808Z,23.06
2019-05-22T15:30:16.984Z,22.82
2019-05-22T15:32:45.540Z,22.86
2019-05-22T15:35:14.481Z,22.96
2019-05-22T15:37:43.735Z,22.86
2019-05-22T15:40:12.653Z,22.89
2019-05-22T15:42:45.557Z,22.93
2019-05-22T15:45:17.673Z,22.98
2019-05-22T15:47:55.542Z,23.04
2019-05-22T15:50:23.839Z,23.17
2019-05-22T15:52:58.253Z,23.32
2019-05-22T15:55:31.276Z,23.45
2019-05-22T15:58:00.754Z,23.43
2019-05-22T16:00:34.654Z,23.49
2019-05-22T16:03:12.716Z,23.47
2019-05-22T16:05:42.331Z,23.44
2019-05-22T16:08:11.709Z,23.49
2019-05-22T16:10:43.348Z,23.34
2019-05-22T16:13:14.854Z,23.23
2019-05-22T16:15:45.301Z,23.08
2019-05-22T16:18:16.238Z,23.01
2019-05-22T16:20:45.371Z,22.79
2019-05-22T16:23:14.463Z,22.37
2019-05-22T16:25:43.137Z,21.27
2019-05-22T16:28:14.026Z,19.44
2019-05-22T16:30:43.832Z,19.12
2019-05-22T16:33:13.973Z,18.88
2019-05-22T16:35:42.604Z,18.61
2019-05-22T16:38:11.548Z,18.10
2019-05-22T16:40:41.399Z,17.78
2019-05-22T16:43:10.180Z,17.72
2019-05-22T16:45:39.314Z,17.54
2019-05-22T16:48:26.097Z,17.56
2019-05-22T16:50:42.062Z,17.72
2019-05-22T16:53:13.164Z,17.75
2019-05-22T16:55:42.650Z,17.50
2019-05-22T16:58:12.950Z,17.36
2019-05-22T17:00:44.259Z,17.19
2019-05-22T17:03:16.223Z,17.30
2019-05-22T17:05:45.246Z,17.27
2019-05-22T17:08:15.085Z,17.31
2019-05-22T17:10:43.857Z,17.34
2019-05-22T17:13:14.815Z,17.37
2019-05-22T17:15:44.126Z,17.40
2019-05-22T17:18:15.483Z,17.33
2019-05-22T17:20:44.871Z,17.26
2019-05-22T17:23:13.763Z,17.24
2019-05-22T17:25:43.358Z,17.22
2019-05-22T17:28:12.656Z,17.26
2019-05-22T17:30:42.164Z,17.06
2019-05-22T17:33:12.215Z,16.89
2019-05-22T17:35:42.112Z,16.94
2019-05-22T17:38:11.141Z,16.87
2019-05-22T17:40:41.487Z,16.82
2019-05-22T17:43:11.026Z,16.84
2019-05-22T17:45:42.855Z,16.82
2019-05-22T17:48:14.607Z,16.70
2019-05-22T17:50:44.654Z,16.69
2019-05-22T17:53:14.035Z,16.73
2019-05-22T17:55:43.504Z,16.76
2019-05-22T17:58:12.636Z,16.78
2019-05-22T18:00:43.423Z,16.83
2019-05-22T18:03:12.304Z,16.78
2019-05-22T18:05:41.173Z,16.80
2019-05-22T18:08:10.819Z,16.99
2019-05-22T18:10:41.733Z,16.91
2019-05-22T18:13:12.173Z,16.81
2019-05-22T18:15:41.898Z,16.84
2019-05-22T18:18:11.417Z,16.69
2019-05-22T18:20:43.782Z,16.65
2019-05-22T18:23:11.202Z,16.67
2019-05-22T18:25:39.912Z,16.68
2019-05-22T18:28:09.859Z,16.68
2019-05-22T18:30:40.556Z,16.69
2019-05-22T18:33:09.111Z,16.68
2019-05-22T18:35:38.010Z,16.69
2019-05-22T18:38:06.793Z,16.41
2019-05-22T18:40:35.515Z,16.32
2019-05-22T18:43:04.360Z,16.17
2019-05-22T18:45:34.668Z,16.14
2019-05-22T18:48:03.444Z,16.18
2019-05-22T18:50:32.922Z,16.10
2019-05-22T18:53:01.979Z,15.73
2019-05-22T18:55:30.571Z,15.37
2019-05-22T18:57:59.410Z,15.28
2019-05-22T19:00:29.819Z,15.13
2019-05-22T19:02:58.935Z,15.00
2019-05-22T19:05:30.628Z,15.00
2019-05-22T19:07:59.331Z,15.03
2019-05-22T19:10:28.682Z,15.12
2019-05-22T19:12:57.795Z,15.15
2019-05-22T19:15:27.065Z,15.17
2019-05-22T19:17:55.607Z,14.91
2019-05-22T19:20:24.532Z,14.87
2019-05-22T19:23:00.534Z,15.00
2019-05-22T19:25:24.559Z,14.87
2019-05-22T19:27:53.391Z,14.68
2019-05-22T19:30:22.438Z,14.47
2019-05-22T19:32:51.761Z,14.40
2019-05-22T19:35:20.592Z,14.38
2019-05-22T19:37:50.245Z,14.46
2019-05-22T19:40:19.779Z,14.47
2019-05-22T19:42:48.797Z,14.55
2019-05-22T19:45:18.951Z,14.68
2019-05-22T19:47:52.892Z,14.74
2019-05-22T19:50:23.917Z,14.69
2019-05-22T19:52:53.494Z,14.66
2019-05-22T19:55:23.293Z,14.64
2019-05-22T19:57:52.854Z,14.65
2019-05-22T20:00:22.987Z,14.68
2019-05-22T20:02:51.622Z,14.67
2019-05-22T20:05:22.974Z,14.59
2019-05-22T20:07:52.157Z,14.70
2019-05-22T20:10:21.867Z,14.67
2019-05-22T20:12:50.880Z,14.62
2019-05-22T20:15:21.695Z,14.55
2019-05-22T20:17:50.528Z,14.46
2019-05-22T20:20:20.074Z,14.35
2019-05-22T20:22:49.802Z,14.22
2019-05-22T20:25:20.502Z,14.18
2019-05-22T20:27:49.375Z,14.09
2019-05-22T20:30:20.249Z,14.02
2019-05-22T20:32:49.425Z,14.02
2019-05-22T20:35:18.889Z,13.99
2019-05-22T20:37:48.098Z,14.00
2019-05-22T20:40:20.363Z,14.09
2019-05-22T20:42:49.172Z,14.02
2019-05-22T20:45:21.097Z,14.00
2019-05-22T20:47:54.401Z,13.98
2019-05-22T20:50:24.601Z,14.08
2019-05-22T20:52:53.544Z,13.92
2019-05-22T20:55:22.646Z,13.89
2019-05-22T20:57:53.048Z,13.92
2019-05-22T21:00:23.586Z,13.81
2019-05-22T21:02:55.337Z,13.75
2019-05-22T21:05:24.366Z,13.77
2019-05-22T21:07:55.899Z,13.72
2019-05-22T21:10:25.554Z,13.72
2019-05-22T21:12:55.662Z,13.75
2019-05-22T21:15:24.575Z,13.89
2019-05-22T21:17:54.883Z,13.99
2019-05-22T21:20:25.149Z,13.96
2019-05-22T21:22:54.017Z,13.95
2019-05-22T21:25:23.456Z,13.94
2019-05-22T21:27:52.190Z,13.90
2019-05-22T21:30:21.386Z,13.83
2019-05-22T21:32:50.487Z,13.88
2019-05-22T21:35:19.846Z,13.91
2019-05-22T21:37:48.550Z,13.88
2019-05-22T21:40:20.289Z,13.86
2019-05-22T21:42:51.251Z,13.75
2019-05-22T21:45:20.702Z,13.67
2019-05-22T21:47:49.693Z,13.61
2019-05-22T21:50:20.489Z,13.63
2019-05-22T21:52:49.081Z,13.61
2019-05-22T21:55:19.336Z,13.47
2019-05-22T21:57:47.965Z,13.35
2019-05-22T22:00:41.718Z,13.22
2019-05-22T22:03:19.273Z,13.13
2019-05-22T22:05:48.246Z,13.22
2019-05-22T22:08:16.919Z,13.32
2019-05-22T22:10:46.324Z,13.36
2019-05-22T22:13:15.086Z,13.48
2019-05-22T22:15:44.440Z,13.41
2019-05-22T22:18:13.211Z,13.49
2019-05-22T22:20:42.880Z,13.58
2019-05-22T22:23:13.407Z,13.43
2019-05-22T22:25:42.751Z,13.53
2019-05-22T22:28:13.554Z,13.59
2019-05-22T22:30:46.777Z,13.54
2019-05-22T22:33:17.797Z,13.54
2019-05-22T22:35:47.374Z,13.54
2019-05-22T22:38:16.035Z,13.41
2019-05-22T22:40:45.070Z,13.30
2019-05-22T22:43:14.275Z,13.25
2019-05-22T22:45:47.791Z,13.25
2019-05-22T22:48:33.112Z,13.20
2019-05-22T22:51:04.057Z,13.22
2019-05-22T22:53:32.665Z,13.25
2019-05-22T22:56:01.544Z,13.27
2019-05-22T22:58:30.755Z,13.29
2019-05-22T23:01:00.258Z,13.39
2019-05-22T23:03:30.079Z,13.43
2019-05-22T23:05:59.428Z,13.57
2019-05-22T23:08:33.102Z,13.57
2019-05-22T23:11:01.730Z,13.64
2019-05-22T23:13:30.840Z,13.71
2019-05-22T23:16:00.342Z,13.79
2019-05-22T23:18:45.378Z,13.67
2019-05-22T23:21:16.826Z,13.71
2019-05-22T23:23:44.229Z,13.68
2019-05-22T23:26:13.279Z,13.72
2019-05-22T23:28:42.902Z,13.77
2019-05-22T23:31:12.600Z,13.82
2019-05-22T23:33:42.959Z,13.87
2019-05-22T23:36:13.581Z,13.87
2019-05-22T23:38:43.080Z,13.86
2019-05-22T23:41:13.972Z,13.74
2019-05-22T23:43:44.838Z,13.67
2019-05-22T23:46:14.889Z,13.63
2019-05-22T23:48:43.935Z,13.59
2019-05-22T23:51:12.871Z,13.53
2019-05-22T23:53:42.804Z,13.49
2019-05-22T23:56:11.746Z,13.47
2019-05-22T23:58:52.356Z,13.46
